sensor_id;sensor_type;location;lat;lon;timestamp;P1;durP1;ratioP1;P2;durP2;ratioP2
11135;SDS011;5622;50.840;4.948;2023-03-01T00:00:19;8.23;;;6.63;;
11135;SDS011;5622;50.840;4.948;2023-03-01T00:02:46;8.87;;;6.70;;
11135;SDS011;5622;50.840;4.948;2023-03-01T00:05:13;10.80;;;7.67;;
11135;SDS011;5622;50.840;4.948;2023-03-01T00:07:40;9.60;;;6.50;;
11135;SDS011;5622;50.840;4.948;2023-03-01T00:10:08;8.43;;;6.90;;
11135;SDS011;5622;50.840;4.948;2023-03-01T00:12:38;10.90;;;7.30;;
11135;SDS011;5622;50.840;4.948;2023-03-01T00:15:05;8.30;;;6.70;;
11135;SDS011;5622;50.840;4.948;2023-03-01T00:17:33;7.80;;;6.40;;
11135;SDS011;5622;50.840;4.948;2023-03-01T00:20:00;10.17;;;7.23;;
11135;SDS011;5622;50.840;4.948;2023-03-01T00:22:27;8.73;;;7.07;;
11135;SDS011;5622;50.840;4.948;2023-03-01T00:24:54;9.50;;;6.97;;
11135;SDS011;5622;50.840;4.948;2023-03-01T00:27:21;8.40;;;6.90;;
11135;SDS011;5622;50.840;4.948;2023-03-01T00:29:50;10.33;;;6.70;;
11135;SDS011;5622;50.840;4.948;2023-03-01T00:32:18;8.60;;;7.37;;
11135;SDS011;5622;50.840;4.948;2023-03-01T00:34:45;10.50;;;7.40;;
11135;SDS011;5622;50.840;4.948;2023-03-01T00:37:19;9.27;;;7.20;;
11135;SDS011;5622;50.840;4.948;2023-03-01T00:39:46;7.23;;;6.37;;
11135;SDS011;5622;50.840;4.948;2023-03-01T00:42:13;10.90;;;6.47;;
11135;SDS011;5622;50.840;4.948;2023-03-01T00:44:41;9.87;;;6.77;;
11135;SDS011;5622;50.840;4.948;2023-03-01T00:47:09;9.00;;;7.40;;
11135;SDS011;5622;50.840;4.948;2023-03-01T00:49:36;8.20;;;7.10;;
11135;SDS011;5622;50.840;4.948;2023-03-01T00:52:04;9.70;;;7.00;;
11135;SDS011;5622;50.840;4.948;2023-03-01T00:54:31;8.83;;;7.13;;
11135;SDS011;5622;50.840;4.948;2023-03-01T00:56:58;10.47;;;7.90;;
11135;SDS011;5622;50.840;4.948;2023-03-01T00:59:25;9.93;;;7.20;;
11135;SDS011;5622;50.840;4.948;2023-03-01T01:01:52;10.90;;;7.63;;
11135;SDS011;5622;50.840;4.948;2023-03-01T01:04:21;10.20;;;7.40;;
11135;SDS011;5622;50.840;4.948;2023-03-01T01:06:48;11.03;;;7.60;;
11135;SDS011;5622;50.840;4.948;2023-03-01T01:09:16;8.50;;;7.23;;
11135;SDS011;5622;50.840;4.948;2023-03-01T01:11:45;9.37;;;7.53;;
11135;SDS011;5622;50.840;4.948;2023-03-01T01:14:16;10.17;;;7.77;;
11135;SDS011;5622;50.840;4.948;2023-03-01T01:16:44;10.43;;;7.53;;
11135;SDS011;5622;50.840;4.948;2023-03-01T01:19:11;10.83;;;7.80;;
11135;SDS011;5622;50.840;4.948;2023-03-01T01:21:40;11.60;;;7.80;;
11135;SDS011;5622;50.840;4.948;2023-03-01T01:24:08;9.33;;;7.00;;
11135;SDS011;5622;50.840;4.948;2023-03-01T01:26:35;8.50;;;6.87;;
11135;SDS011;5622;50.840;4.948;2023-03-01T01:29:03;9.17;;;6.80;;
11135;SDS011;5622;50.840;4.948;2023-03-01T01:31:32;12.10;;;8.10;;
11135;SDS011;5622;50.840;4.948;2023-03-01T01:34:01;9.80;;;7.60;;
11135;SDS011;5622;50.840;4.948;2023-03-01T01:36:29;8.23;;;6.70;;
11135;SDS011;5622;50.840;4.948;2023-03-01T01:38:58;11.83;;;7.90;;
11135;SDS011;5622;50.840;4.948;2023-03-01T01:41:26;10.23;;;7.50;;
11135;SDS011;5622;50.840;4.948;2023-03-01T01:44:13;10.03;;;7.70;;
11135;SDS011;5622;50.840;4.948;2023-03-01T01:46:47;9.97;;;7.20;;
11135;SDS011;5622;50.840;4.948;2023-03-01T01:49:18;9.30;;;7.13;;
11135;SDS011;5622;50.840;4.948;2023-03-01T01:51:51;7.80;;;7.00;;
11135;SDS011;5622;50.840;4.948;2023-03-01T01:54:25;9.47;;;6.87;;
11135;SDS011;5622;50.840;4.948;2023-03-01T01:56:58;9.13;;;7.70;;
11135;SDS011;5622;50.840;4.948;2023-03-01T01:59:28;8.97;;;7.20;;
11135;SDS011;5622;50.840;4.948;2023-03-01T02:01:58;11.77;;;8.33;;
11135;SDS011;5622;50.840;4.948;2023-03-01T02:04:26;9.53;;;7.83;;
11135;SDS011;5622;50.840;4.948;2023-03-01T02:06:55;9.70;;;8.10;;
11135;SDS011;5622;50.840;4.948;2023-03-01T02:09:28;10.13;;;7.97;;
11135;SDS011;5622;50.840;4.948;2023-03-01T02:11:58;10.07;;;7.37;;
11135;SDS011;5622;50.840;4.948;2023-03-01T02:14:26;8.97;;;7.20;;
11135;SDS011;5622;50.840;4.948;2023-03-01T02:16:53;11.20;;;8.27;;
11135;SDS011;5622;50.840;4.948;2023-03-01T02:19:25;10.93;;;7.90;;
11135;SDS011;5622;50.840;4.948;2023-03-01T02:22:06;9.20;;;7.17;;
11135;SDS011;5622;50.840;4.948;2023-03-01T02:24:45;12.47;;;7.83;;
11135;SDS011;5622;50.840;4.948;2023-03-01T02:27:26;10.50;;;7.20;;
11135;SDS011;5622;50.840;4.948;2023-03-01T02:30:01;9.17;;;7.07;;
11135;SDS011;5622;50.840;4.948;2023-03-01T02:32:28;9.47;;;7.07;;
11135;SDS011;5622;50.840;4.948;2023-03-01T02:34:54;12.37;;;7.83;;
11135;SDS011;5622;50.840;4.948;2023-03-01T02:37:22;11.37;;;8.20;;
11135;SDS011;5622;50.840;4.948;2023-03-01T02:39:53;9.70;;;7.73;;
11135;SDS011;5622;50.840;4.948;2023-03-01T02:42:26;11.13;;;7.67;;
11135;SDS011;5622;50.840;4.948;2023-03-01T02:44:56;9.80;;;7.80;;
11135;SDS011;5622;50.840;4.948;2023-03-01T02:47:25;10.80;;;7.73;;
11135;SDS011;5622;50.840;4.948;2023-03-01T02:49:52;9.07;;;6.97;;
11135;SDS011;5622;50.840;4.948;2023-03-01T02:55:10;9.03;;;7.40;;
11135;SDS011;5622;50.840;4.948;2023-03-01T02:57:40;12.07;;;7.73;;
11135;SDS011;5622;50.840;4.948;2023-03-01T03:00:09;15.00;;;8.43;;
11135;SDS011;5622;50.840;4.948;2023-03-01T03:02:46;10.83;;;8.13;;
11135;SDS011;5622;50.840;4.948;2023-03-01T03:05:15;11.90;;;8.30;;
11135;SDS011;5622;50.840;4.948;2023-03-01T03:07:44;10.27;;;7.87;;
11135;SDS011;5622;50.840;4.948;2023-03-01T03:10:14;12.77;;;8.33;;
11135;SDS011;5622;50.840;4.948;2023-03-01T03:12:44;11.83;;;7.63;;
11135;SDS011;5622;50.840;4.948;2023-03-01T03:15:14;12.73;;;8.23;;
11135;SDS011;5622;50.840;4.948;2023-03-01T03:17:42;15.97;;;8.27;;
11135;SDS011;5622;50.840;4.948;2023-03-01T03:20:12;12.23;;;8.53;;
11135;SDS011;5622;50.840;4.948;2023-03-01T03:22:44;10.13;;;7.83;;
11135;SDS011;5622;50.840;4.948;2023-03-01T03:25:11;10.13;;;8.03;;
11135;SDS011;5622;50.840;4.948;2023-03-01T03:27:39;11.00;;;8.60;;
11135;SDS011;5622;50.840;4.948;2023-03-01T03:30:08;11.07;;;8.97;;
11135;SDS011;5622;50.840;4.948;2023-03-01T03:32:37;11.17;;;8.40;;
11135;SDS011;5622;50.840;4.948;2023-03-01T03:35:06;9.03;;;7.87;;
11135;SDS011;5622;50.840;4.948;2023-03-01T03:37:37;12.00;;;8.87;;
11135;SDS011;5622;50.840;4.948;2023-03-01T03:40:22;11.33;;;8.53;;
11135;SDS011;5622;50.840;4.948;2023-03-01T03:42:50;9.33;;;8.33;;
11135;SDS011;5622;50.840;4.948;2023-03-01T03:45:17;12.13;;;8.23;;
11135;SDS011;5622;50.840;4.948;2023-03-01T03:47:44;11.93;;;8.80;;
11135;SDS011;5622;50.840;4.948;2023-03-01T03:50:12;12.13;;;8.57;;
11135;SDS011;5622;50.840;4.948;2023-03-01T03:52:42;14.20;;;9.40;;
11135;SDS011;5622;50.840;4.948;2023-03-01T03:55:10;13.93;;;8.70;;
11135;SDS011;5622;50.840;4.948;2023-03-01T03:57:38;13.27;;;8.97;;
11135;SDS011;5622;50.840;4.948;2023-03-01T04:00:08;12.57;;;8.87;;
11135;SDS011;5622;50.840;4.948;2023-03-01T04:02:38;11.43;;;8.50;;
11135;SDS011;5622;50.840;4.948;2023-03-01T04:05:06;13.00;;;9.30;;
11135;SDS011;5622;50.840;4.948;2023-03-01T04:07:34;11.57;;;9.13;;
11135;SDS011;5622;50.840;4.948;2023-03-01T04:10:04;11.63;;;9.23;;
11135;SDS011;5622;50.840;4.948;2023-03-01T04:12:34;12.40;;;8.67;;
11135;SDS011;5622;50.840;4.948;2023-03-01T04:15:02;12.47;;;8.87;;
11135;SDS011;5622;50.840;4.948;2023-03-01T04:17:37;10.83;;;8.30;;
11135;SDS011;5622;50.840;4.948;2023-03-01T04:20:05;12.30;;;8.70;;
11135;SDS011;5622;50.840;4.948;2023-03-01T04:22:36;11.53;;;8.30;;
11135;SDS011;5622;50.840;4.948;2023-03-01T04:25:05;13.23;;;9.33;;
11135;SDS011;5622;50.840;4.948;2023-03-01T04:27:33;13.07;;;9.07;;
11135;SDS011;5622;50.840;4.948;2023-03-01T04:30:00;12.13;;;9.30;;
11135;SDS011;5622;50.840;4.948;2023-03-01T04:32:27;11.60;;;8.70;;
11135;SDS011;5622;50.840;4.948;2023-03-01T04:34:54;11.77;;;9.13;;
11135;SDS011;5622;50.840;4.948;2023-03-01T04:37:23;15.43;;;9.63;;
11135;SDS011;5622;50.840;4.948;2023-03-01T04:39:50;13.03;;;9.10;;
11135;SDS011;5622;50.840;4.948;2023-03-01T04:42:19;13.33;;;9.27;;
11135;SDS011;5622;50.840;4.948;2023-03-01T04:44:46;13.03;;;9.00;;
11135;SDS011;5622;50.840;4.948;2023-03-01T04:47:16;12.97;;;9.47;;
11135;SDS011;5622;50.840;4.948;2023-03-01T04:49:43;13.37;;;9.67;;
11135;SDS011;5622;50.840;4.948;2023-03-01T04:52:10;12.13;;;9.20;;
11135;SDS011;5622;50.840;4.948;2023-03-01T04:54:37;12.73;;;9.60;;
11135;SDS011;5622;50.840;4.948;2023-03-01T04:57:04;16.60;;;9.70;;
11135;SDS011;5622;50.840;4.948;2023-03-01T04:59:33;13.07;;;9.27;;
11135;SDS011;5622;50.840;4.948;2023-03-01T05:02:01;13.17;;;9.37;;
11135;SDS011;5622;50.840;4.948;2023-03-01T05:04:28;12.77;;;9.27;;
11135;SDS011;5622;50.840;4.948;2023-03-01T05:06:56;11.97;;;8.73;;
11135;SDS011;5622;50.840;4.948;2023-03-01T05:09:23;15.30;;;9.23;;
11135;SDS011;5622;50.840;4.948;2023-03-01T05:11:51;15.07;;;8.67;;
11135;SDS011;5622;50.840;4.948;2023-03-01T05:14:18;12.03;;;8.90;;
11135;SDS011;5622;50.840;4.948;2023-03-01T05:16:46;13.70;;;9.83;;
11135;SDS011;5622;50.840;4.948;2023-03-01T05:19:13;13.23;;;9.63;;
11135;SDS011;5622;50.840;4.948;2023-03-01T05:21:41;11.97;;;8.93;;
11135;SDS011;5622;50.840;4.948;2023-03-01T05:24:22;11.63;;;8.90;;
11135;SDS011;5622;50.840;4.948;2023-03-01T05:26:50;14.57;;;9.70;;
11135;SDS011;5622;50.840;4.948;2023-03-01T05:29:18;12.13;;;9.03;;
11135;SDS011;5622;50.840;4.948;2023-03-01T05:31:52;13.20;;;9.20;;
11135;SDS011;5622;50.840;4.948;2023-03-01T05:34:22;14.07;;;9.43;;
11135;SDS011;5622;50.840;4.948;2023-03-01T05:36:50;13.90;;;9.40;;
11135;SDS011;5622;50.840;4.948;2023-03-01T05:39:18;14.40;;;9.83;;
11135;SDS011;5622;50.840;4.948;2023-03-01T05:41:47;12.90;;;9.90;;
11135;SDS011;5622;50.840;4.948;2023-03-01T05:44:15;13.03;;;9.47;;
11135;SDS011;5622;50.840;4.948;2023-03-01T05:46:42;12.30;;;10.03;;
11135;SDS011;5622;50.840;4.948;2023-03-01T05:49:11;12.40;;;9.53;;
11135;SDS011;5622;50.840;4.948;2023-03-01T05:51:39;14.23;;;9.53;;
11135;SDS011;5622;50.840;4.948;2023-03-01T05:54:07;12.93;;;9.97;;
11135;SDS011;5622;50.840;4.948;2023-03-01T05:56:35;17.67;;;10.57;;
11135;SDS011;5622;50.840;4.948;2023-03-01T05:59:03;13.50;;;9.30;;
11135;SDS011;5622;50.840;4.948;2023-03-01T06:01:31;12.53;;;9.83;;
11135;SDS011;5622;50.840;4.948;2023-03-01T06:03:58;14.77;;;10.43;;
11135;SDS011;5622;50.840;4.948;2023-03-01T06:06:27;16.53;;;11.60;;
11135;SDS011;5622;50.840;4.948;2023-03-01T06:08:54;20.07;;;13.27;;
11135;SDS011;5622;50.840;4.948;2023-03-01T06:11:22;20.00;;;13.17;;
11135;SDS011;5622;50.840;4.948;2023-03-01T06:13:49;48.73;;;23.83;;
11135;SDS011;5622;50.840;4.948;2023-03-01T06:16:16;28.53;;;16.70;;
11135;SDS011;5622;50.840;4.948;2023-03-01T06:18:43;27.23;;;16.23;;
11135;SDS011;5622;50.840;4.948;2023-03-01T06:21:10;34.80;;;17.20;;
11135;SDS011;5622;50.840;4.948;2023-03-01T06:23:39;26.53;;;16.57;;
11135;SDS011;5622;50.840;4.948;2023-03-01T06:26:07;19.67;;;14.47;;
11135;SDS011;5622;50.840;4.948;2023-03-01T06:28:35;18.20;;;13.27;;
11135;SDS011;5622;50.840;4.948;2023-03-01T06:31:02;17.50;;;12.53;;
11135;SDS011;5622;50.840;4.948;2023-03-01T06:33:29;17.03;;;12.30;;
11135;SDS011;5622;50.840;4.948;2023-03-01T06:35:56;15.83;;;11.20;;
11135;SDS011;5622;50.840;4.948;2023-03-01T06:38:23;15.20;;;11.03;;
11135;SDS011;5622;50.840;4.948;2023-03-01T06:40:53;16.97;;;11.93;;
11135;SDS011;5622;50.840;4.948;2023-03-01T06:43:21;15.27;;;10.70;;
11135;SDS011;5622;50.840;4.948;2023-03-01T06:45:48;16.63;;;10.87;;
11135;SDS011;5622;50.840;4.948;2023-03-01T06:48:16;13.30;;;10.43;;
11135;SDS011;5622;50.840;4.948;2023-03-01T06:50:43;16.17;;;10.67;;
11135;SDS011;5622;50.840;4.948;2023-03-01T06:53:10;19.33;;;11.47;;
11135;SDS011;5622;50.840;4.948;2023-03-01T06:55:37;16.20;;;11.40;;
11135;SDS011;5622;50.840;4.948;2023-03-01T06:58:05;14.27;;;10.03;;
11135;SDS011;5622;50.840;4.948;2023-03-01T07:00:33;15.23;;;10.40;;
11135;SDS011;5622;50.840;4.948;2023-03-01T07:03:00;14.23;;;10.73;;
11135;SDS011;5622;50.840;4.948;2023-03-01T07:05:28;21.37;;;11.53;;
11135;SDS011;5622;50.840;4.948;2023-03-01T07:07:56;26.47;;;14.97;;
11135;SDS011;5622;50.840;4.948;2023-03-01T07:10:23;35.90;;;18.93;;
11135;SDS011;5622;50.840;4.948;2023-03-01T07:12:50;30.47;;;16.17;;
11135;SDS011;5622;50.840;4.948;2023-03-01T07:15:22;26.90;;;15.17;;
11135;SDS011;5622;50.840;4.948;2023-03-01T07:17:52;22.17;;;13.90;;
11135;SDS011;5622;50.840;4.948;2023-03-01T07:20:20;23.70;;;14.83;;
11135;SDS011;5622;50.840;4.948;2023-03-01T07:22:50;23.07;;;13.63;;
11135;SDS011;5622;50.840;4.948;2023-03-01T07:25:17;15.97;;;10.43;;
11135;SDS011;5622;50.840;4.948;2023-03-01T07:27:48;19.13;;;11.60;;
11135;SDS011;5622;50.840;4.948;2023-03-01T07:30:17;15.80;;;10.27;;
11135;SDS011;5622;50.840;4.948;2023-03-01T07:32:45;16.33;;;9.90;;
11135;SDS011;5622;50.840;4.948;2023-03-01T07:35:13;17.17;;;10.47;;
11135;SDS011;5622;50.840;4.948;2023-03-01T07:37:41;12.27;;;9.53;;
11135;SDS011;5622;50.840;4.948;2023-03-01T07:40:08;16.07;;;10.43;;
11135;SDS011;5622;50.840;4.948;2023-03-01T07:42:36;15.63;;;9.50;;
11135;SDS011;5622;50.840;4.948;2023-03-01T07:45:04;18.50;;;10.30;;
11135;SDS011;5622;50.840;4.948;2023-03-01T07:47:32;19.83;;;10.80;;
11135;SDS011;5622;50.840;4.948;2023-03-01T07:50:00;14.67;;;10.33;;
11135;SDS011;5622;50.840;4.948;2023-03-01T07:52:28;14.70;;;9.30;;
11135;SDS011;5622;50.840;4.948;2023-03-01T07:54:55;14.83;;;10.30;;
11135;SDS011;5622;50.840;4.948;2023-03-01T07:57:23;13.60;;;10.03;;
11135;SDS011;5622;50.840;4.948;2023-03-01T07:59:50;14.83;;;10.17;;
11135;SDS011;5622;50.840;4.948;2023-03-01T08:02:17;15.87;;;10.37;;
11135;SDS011;5622;50.840;4.948;2023-03-01T08:04:44;15.97;;;10.40;;
11135;SDS011;5622;50.840;4.948;2023-03-01T08:07:13;15.17;;;10.20;;
11135;SDS011;5622;50.840;4.948;2023-03-01T08:09:40;15.93;;;10.57;;
11135;SDS011;5622;50.840;4.948;2023-03-01T08:12:07;12.70;;;9.63;;
11135;SDS011;5622;50.840;4.948;2023-03-01T08:14:34;15.17;;;10.77;;
11135;SDS011;5622;50.840;4.948;2023-03-01T08:17:01;17.00;;;10.93;;
11135;SDS011;5622;50.840;4.948;2023-03-01T08:19:29;16.23;;;10.63;;
11135;SDS011;5622;50.840;4.948;2023-03-01T08:21:58;16.40;;;11.20;;
11135;SDS011;5622;50.840;4.948;2023-03-01T08:24:26;16.83;;;10.90;;
11135;SDS011;5622;50.840;4.948;2023-03-01T08:26:54;14.17;;;10.93;;
11135;SDS011;5622;50.840;4.948;2023-03-01T08:29:21;16.60;;;11.17;;
11135;SDS011;5622;50.840;4.948;2023-03-01T08:31:49;14.30;;;10.10;;
11135;SDS011;5622;50.840;4.948;2023-03-01T08:34:17;15.17;;;10.60;;
11135;SDS011;5622;50.840;4.948;2023-03-01T08:36:45;14.97;;;10.50;;
11135;SDS011;5622;50.840;4.948;2023-03-01T08:39:14;13.00;;;10.30;;
11135;SDS011;5622;50.840;4.948;2023-03-01T08:41:44;13.03;;;9.90;;
11135;SDS011;5622;50.840;4.948;2023-03-01T08:44:12;18.00;;;11.27;;
11135;SDS011;5622;50.840;4.948;2023-03-01T08:46:42;14.47;;;9.40;;
11135;SDS011;5622;50.840;4.948;2023-03-01T08:49:11;13.97;;;10.57;;
11135;SDS011;5622;50.840;4.948;2023-03-01T08:51:40;15.03;;;10.47;;
11135;SDS011;5622;50.840;4.948;2023-03-01T08:54:12;20.40;;;10.53;;
11135;SDS011;5622;50.840;4.948;2023-03-01T08:56:41;14.63;;;10.90;;
11135;SDS011;5622;50.840;4.948;2023-03-01T08:59:10;14.87;;;10.80;;
11135;SDS011;5622;50.840;4.948;2023-03-01T09:01:38;14.80;;;10.33;;
11135;SDS011;5622;50.840;4.948;2023-03-01T09:04:08;16.90;;;10.60;;
11135;SDS011;5622;50.840;4.948;2023-03-01T09:06:35;13.47;;;10.27;;
11135;SDS011;5622;50.840;4.948;2023-03-01T09:09:04;16.97;;;11.20;;
11135;SDS011;5622;50.840;4.948;2023-03-01T09:11:33;12.73;;;10.33;;
11135;SDS011;5622;50.840;4.948;2023-03-01T09:14:00;17.27;;;11.27;;
11135;SDS011;5622;50.840;4.948;2023-03-01T09:16:28;14.17;;;10.40;;
11135;SDS011;5622;50.840;4.948;2023-03-01T09:19:01;13.07;;;10.33;;
11135;SDS011;5622;50.840;4.948;2023-03-01T09:21:29;15.20;;;10.83;;
11135;SDS011;5622;50.840;4.948;2023-03-01T09:23:56;13.30;;;10.47;;
11135;SDS011;5622;50.840;4.948;2023-03-01T09:26:24;14.13;;;10.57;;
11135;SDS011;5622;50.840;4.948;2023-03-01T09:28:52;15.93;;;10.73;;
11135;SDS011;5622;50.840;4.948;2023-03-01T09:31:21;12.70;;;10.13;;
11135;SDS011;5622;50.840;4.948;2023-03-01T09:33:51;16.20;;;11.27;;
11135;SDS011;5622;50.840;4.948;2023-03-01T09:36:20;13.67;;;10.20;;
11135;SDS011;5622;50.840;4.948;2023-03-01T09:38:48;18.43;;;10.30;;
11135;SDS011;5622;50.840;4.948;2023-03-01T09:41:24;16.37;;;10.77;;
11135;SDS011;5622;50.840;4.948;2023-03-01T09:44:04;16.90;;;10.73;;
11135;SDS011;5622;50.840;4.948;2023-03-01T09:46:40;14.57;;;10.30;;
11135;SDS011;5622;50.840;4.948;2023-03-01T09:49:12;14.40;;;10.27;;
11135;SDS011;5622;50.840;4.948;2023-03-01T09:51:46;14.23;;;11.00;;
11135;SDS011;5622;50.840;4.948;2023-03-01T09:54:21;14.97;;;10.47;;
11135;SDS011;5622;50.840;4.948;2023-03-01T09:56:52;14.97;;;10.73;;
11135;SDS011;5622;50.840;4.948;2023-03-01T09:59:29;18.07;;;10.67;;
11135;SDS011;5622;50.840;4.948;2023-03-01T10:02:05;13.77;;;11.23;;
11135;SDS011;5622;50.840;4.948;2023-03-01T10:04:46;16.93;;;10.97;;
11135;SDS011;5622;50.840;4.948;2023-03-01T10:07:19;16.53;;;11.90;;
11135;SDS011;5622;50.840;4.948;2023-03-01T10:09:53;17.30;;;10.67;;
11135;SDS011;5622;50.840;4.948;2023-03-01T10:12:24;15.47;;;11.13;;
11135;SDS011;5622;50.840;4.948;2023-03-01T10:14:58;14.73;;;10.93;;
11135;SDS011;5622;50.840;4.948;2023-03-01T10:17:30;17.90;;;10.77;;
11135;SDS011;5622;50.840;4.948;2023-03-01T10:20:17;20.63;;;11.90;;
11135;SDS011;5622;50.840;4.948;2023-03-01T10:22:47;16.50;;;10.63;;
11135;SDS011;5622;50.840;4.948;2023-03-01T10:25:20;14.57;;;10.50;;
11135;SDS011;5622;50.840;4.948;2023-03-01T10:28:04;15.83;;;10.70;;
11135;SDS011;5622;50.840;4.948;2023-03-01T10:30:42;17.30;;;10.80;;
11135;SDS011;5622;50.840;4.948;2023-03-01T10:33:16;16.30;;;11.70;;
11135;SDS011;5622;50.840;4.948;2023-03-01T10:35:48;20.60;;;11.63;;
11135;SDS011;5622;50.840;4.948;2023-03-01T10:38:16;14.83;;;11.30;;
11135;SDS011;5622;50.840;4.948;2023-03-01T10:40:52;15.83;;;11.10;;
11135;SDS011;5622;50.840;4.948;2023-03-01T10:43:22;15.20;;;11.20;;
11135;SDS011;5622;50.840;4.948;2023-03-01T10:45:50;14.20;;;10.03;;
11135;SDS011;5622;50.840;4.948;2023-03-01T10:48:18;16.23;;;10.90;;
11135;SDS011;5622;50.840;4.948;2023-03-01T10:50:50;14.80;;;11.00;;
11135;SDS011;5622;50.840;4.948;2023-03-01T10:53:32;13.60;;;11.00;;
11135;SDS011;5622;50.840;4.948;2023-03-01T10:56:01;14.60;;;10.87;;
11135;SDS011;5622;50.840;4.948;2023-03-01T10:58:30;11.47;;;9.80;;
11135;SDS011;5622;50.840;4.948;2023-03-01T11:00:59;15.03;;;10.63;;
11135;SDS011;5622;50.840;4.948;2023-03-01T11:03:27;13.60;;;10.13;;
11135;SDS011;5622;50.840;4.948;2023-03-01T11:05:59;13.13;;;10.20;;
11135;SDS011;5622;50.840;4.948;2023-03-01T11:08:32;15.27;;;10.33;;
11135;SDS011;5622;50.840;4.948;2023-03-01T11:11:13;16.27;;;10.70;;
11135;SDS011;5622;50.840;4.948;2023-03-01T11:13:49;15.73;;;9.77;;
11135;SDS011;5622;50.840;4.948;2023-03-01T11:16:22;14.90;;;10.67;;
11135;SDS011;5622;50.840;4.948;2023-03-01T11:18:56;15.17;;;10.67;;
11135;SDS011;5622;50.840;4.948;2023-03-01T11:21:25;13.97;;;10.57;;
11135;SDS011;5622;50.840;4.948;2023-03-01T11:23:55;14.50;;;10.13;;
11135;SDS011;5622;50.840;4.948;2023-03-01T11:26:25;12.77;;;10.03;;
11135;SDS011;5622;50.840;4.948;2023-03-01T11:28:55;14.23;;;10.57;;
11135;SDS011;5622;50.840;4.948;2023-03-01T11:31:26;15.63;;;11.13;;
11135;SDS011;5622;50.840;4.948;2023-03-01T11:33:58;17.37;;;11.23;;
11135;SDS011;5622;50.840;4.948;2023-03-01T11:36:32;14.27;;;10.23;;
11135;SDS011;5622;50.840;4.948;2023-03-01T11:39:12;13.13;;;9.30;;
11135;SDS011;5622;50.840;4.948;2023-03-01T11:41:48;15.00;;;10.83;;
11135;SDS011;5622;50.840;4.948;2023-03-01T11:44:21;16.57;;;10.77;;
11135;SDS011;5622;50.840;4.948;2023-03-01T11:52:48;13.73;;;10.23;;
11135;SDS011;5622;50.840;4.948;2023-03-01T11:55:30;16.23;;;10.70;;
11135;SDS011;5622;50.840;4.948;2023-03-01T11:58:28;15.23;;;11.17;;
11135;SDS011;5622;50.840;4.948;2023-03-01T12:01:13;15.13;;;10.93;;
11135;SDS011;5622;50.840;4.948;2023-03-01T12:03:54;15.57;;;11.43;;
11135;SDS011;5622;50.840;4.948;2023-03-01T12:06:40;13.30;;;11.17;;
11135;SDS011;5622;50.840;4.948;2023-03-01T12:09:20;16.50;;;11.70;;
11135;SDS011;5622;50.840;4.948;2023-03-01T12:12:07;15.33;;;12.03;;
11135;SDS011;5622;50.840;4.948;2023-03-01T12:14:55;15.90;;;12.00;;
11135;SDS011;5622;50.840;4.948;2023-03-01T12:17:34;15.53;;;11.27;;
11135;SDS011;5622;50.840;4.948;2023-03-01T12:20:22;19.63;;;12.63;;
11135;SDS011;5622;50.840;4.948;2023-03-01T12:23:03;17.07;;;12.90;;
11135;SDS011;5622;50.840;4.948;2023-03-01T12:26:08;19.37;;;13.90;;
11135;SDS011;5622;50.840;4.948;2023-03-01T12:28:45;19.53;;;13.97;;
11135;SDS011;5622;50.840;4.948;2023-03-01T12:31:36;22.27;;;14.10;;
11135;SDS011;5622;50.840;4.948;2023-03-01T12:34:19;19.03;;;15.23;;
11135;SDS011;5622;50.840;4.948;2023-03-01T12:37:17;20.87;;;15.03;;
11135;SDS011;5622;50.840;4.948;2023-03-01T12:39:55;23.17;;;16.30;;
11135;SDS011;5622;50.840;4.948;2023-03-01T12:42:42;26.33;;;15.73;;
11135;SDS011;5622;50.840;4.948;2023-03-01T12:45:34;23.00;;;15.77;;
11135;SDS011;5622;50.840;4.948;2023-03-01T12:48:24;20.43;;;14.73;;
11135;SDS011;5622;50.840;4.948;2023-03-01T12:51:02;22.90;;;15.50;;
11135;SDS011;5622;50.840;4.948;2023-03-01T12:53:34;21.70;;;14.70;;
11135;SDS011;5622;50.840;4.948;2023-03-01T12:56:05;21.23;;;14.20;;
11135;SDS011;5622;50.840;4.948;2023-03-01T12:58:39;18.83;;;14.27;;
11135;SDS011;5622;50.840;4.948;2023-03-01T13:01:15;19.03;;;12.83;;
11135;SDS011;5622;50.840;4.948;2023-03-01T13:06:58;21.27;;;13.20;;
11135;SDS011;5622;50.840;4.948;2023-03-01T13:09:38;17.93;;;13.03;;
11135;SDS011;5622;50.840;4.948;2023-03-01T13:15:29;14.80;;;10.90;;
11135;SDS011;5622;50.840;4.948;2023-03-01T13:17:59;14.77;;;10.33;;
11135;SDS011;5622;50.840;4.948;2023-03-01T13:20:29;16.80;;;10.23;;
11135;SDS011;5622;50.840;4.948;2023-03-01T13:23:03;13.67;;;9.20;;
11135;SDS011;5622;50.840;4.948;2023-03-01T13:25:33;14.00;;;9.53;;
11135;SDS011;5622;50.840;4.948;2023-03-01T13:31:07;12.27;;;9.47;;
11135;SDS011;5622;50.840;4.948;2023-03-01T13:33:44;13.13;;;9.63;;
11135;SDS011;5622;50.840;4.948;2023-03-01T13:39:29;10.87;;;8.87;;
11135;SDS011;5622;50.840;4.948;2023-03-01T13:41:58;12.63;;;9.80;;
11135;SDS011;5622;50.840;4.948;2023-03-01T13:44:31;14.07;;;9.97;;
11135;SDS011;5622;50.840;4.948;2023-03-01T13:47:06;16.20;;;9.83;;
11135;SDS011;5622;50.840;4.948;2023-03-01T13:49:43;13.53;;;9.50;;
11135;SDS011;5622;50.840;4.948;2023-03-01T13:52:32;14.03;;;9.70;;
11135;SDS011;5622;50.840;4.948;2023-03-01T13:55:05;13.80;;;9.10;;
11135;SDS011;5622;50.840;4.948;2023-03-01T13:57:43;13.50;;;9.00;;
11135;SDS011;5622;50.840;4.948;2023-03-01T14:00:29;12.63;;;9.00;;
11135;SDS011;5622;50.840;4.948;2023-03-01T14:05:57;11.63;;;9.47;;
11135;SDS011;5622;50.840;4.948;2023-03-01T14:08:32;14.13;;;9.63;;
11135;SDS011;5622;50.840;4.948;2023-03-01T14:20:21;13.57;;;8.80;;
11135;SDS011;5622;50.840;4.948;2023-03-01T14:22:50;13.90;;;10.10;;
11135;SDS011;5622;50.840;4.948;2023-03-01T14:25:22;12.07;;;9.27;;
11135;SDS011;5622;50.840;4.948;2023-03-01T14:27:51;12.63;;;9.00;;
11135;SDS011;5622;50.840;4.948;2023-03-01T14:30:22;13.77;;;10.13;;
11135;SDS011;5622;50.840;4.948;2023-03-01T14:32:52;13.20;;;9.80;;
11135;SDS011;5622;50.840;4.948;2023-03-01T14:35:23;15.20;;;10.00;;
11135;SDS011;5622;50.840;4.948;2023-03-01T14:37:52;14.97;;;9.50;;
11135;SDS011;5622;50.840;4.948;2023-03-01T14:40:20;15.30;;;9.30;;
11135;SDS011;5622;50.840;4.948;2023-03-01T14:42:49;13.13;;;9.87;;
11135;SDS011;5622;50.840;4.948;2023-03-01T14:45:17;14.63;;;10.00;;
11135;SDS011;5622;50.840;4.948;2023-03-01T14:47:45;15.03;;;9.53;;
11135;SDS011;5622;50.840;4.948;2023-03-01T14:50:16;14.17;;;10.27;;
11135;SDS011;5622;50.840;4.948;2023-03-01T14:52:50;14.13;;;10.47;;
11135;SDS011;5622;50.840;4.948;2023-03-01T14:55:21;14.60;;;10.07;;
11135;SDS011;5622;50.840;4.948;2023-03-01T14:57:52;15.07;;;9.70;;
11135;SDS011;5622;50.840;4.948;2023-03-01T15:00:20;13.90;;;10.03;;
11135;SDS011;5622;50.840;4.948;2023-03-01T15:02:50;12.70;;;9.87;;
11135;SDS011;5622;50.840;4.948;2023-03-01T15:05:24;12.77;;;9.27;;
11135;SDS011;5622;50.840;4.948;2023-03-01T15:07:55;11.80;;;8.40;;
11135;SDS011;5622;50.840;4.948;2023-03-01T15:10:25;12.37;;;9.47;;
11135;SDS011;5622;50.840;4.948;2023-03-01T15:12:53;10.67;;;8.73;;
11135;SDS011;5622;50.840;4.948;2023-03-01T15:15:37;14.10;;;8.80;;
11135;SDS011;5622;50.840;4.948;2023-03-01T15:18:13;11.93;;;8.93;;
11135;SDS011;5622;50.840;4.948;2023-03-01T15:20:44;14.30;;;9.53;;
11135;SDS011;5622;50.840;4.948;2023-03-01T15:23:18;11.40;;;8.77;;
11135;SDS011;5622;50.840;4.948;2023-03-01T15:25:48;13.63;;;8.93;;
11135;SDS011;5622;50.840;4.948;2023-03-01T15:28:22;11.13;;;7.73;;
11135;SDS011;5622;50.840;4.948;2023-03-01T15:30:55;11.30;;;8.47;;
11135;SDS011;5622;50.840;4.948;2023-03-01T15:33:29;12.73;;;8.80;;
11135;SDS011;5622;50.840;4.948;2023-03-01T15:36:00;13.57;;;8.80;;
11135;SDS011;5622;50.840;4.948;2023-03-01T15:38:33;12.90;;;8.53;;